Time;durP1;ratioP1;P1;durP2;ratioP2;P2;SDS_P1;SDS_P2;PMS_P1;PMS_P2;Temp;Humidity;BMP_temperature;BMP_pressure;BME280_temperature;BME280_humidity;BME280_pressure;Samples;Min_cycle;Max_cycle;Signal;HPM_P1;HPM_P2
2022/11/20 00:02:17;;;;;;;10.65;8.07;;;;;;;;;;4949306;29;20042;-81
2022/11/20 00:04:43;;;;;;;17.15;14.95;;;;;;;;;;4965513;29;20043;-81
2022/11/20 00:07:09;;;;;;;15.02;11.13;;;;;;;;;;4961214;29;20031;-82
2022/11/20 00:09:34;;;;;;;14.85;11.77;;;;;;;;;;4942260;29;20031;-80
2022/11/20 00:12:00;;;;;;;15.60;13.95;;;;;;;;;;4958939;29;20118;-81
2022/11/20 00:14:26;;;;;;;8.93;8.07;;;;;;;;;;4944086;29;20467;-80
2022/11/20 00:16:52;;;;;;;15.57;10.35;;;;;;;;;;4925476;29;20555;-81
2022/11/20 00:19:18;;;;;;;11.32;9.02;;;;;;;;;;4967600;29;20031;-81
2022/11/20 00:21:44;;;;;;;16.73;13.65;;;;;;;;;;4950929;29;20079;-81
2022/11/20 00:24:10;;;;;;;11.00;8.48;;;;;;;;;;4919807;29;20062;-82
2022/11/20 00:26:36;;;;;;;11.15;9.27;;;;;;;;;;4970513;28;20039;-81
2022/11/20 00:29:02;;;;;;;9.77;8.70;;;;;;;;;;4957060;29;20100;-83
2022/11/20 00:31:28;;;;;;;11.35;10.25;;;;;;;;;;4941168;29;20129;-81
2022/11/20 00:33:54;;;;;;;14.10;11.27;;;;;;;;;;4940704;29;20038;-82
2022/11/20 00:36:25;;;;;;;9.35;8.30;;;;;;;;;;4955180;29;20051;-82
2022/11/20 00:38:52;;;;;;;19.50;15.43;;;;;;;;;;4955339;29;20038;-82
2022/11/20 00:41:17;;;;;;;15.93;11.95;;;;;;;;;;4948536;29;20106;-81
2022/11/20 00:43:43;;;;;;;14.48;12.55;;;;;;;;;;4965969;29;20042;-81
2022/11/20 00:46:10;;;;;;;13.02;9.45;;;;;;;;;;4935507;29;20031;-81
2022/11/20 00:48:36;;;;;;;15.73;13.93;;;;;;;;;;4952886;29;20131;-80
2022/11/20 00:51:01;;;;;;;12.30;11.05;;;;;;;;;;4931855;29;20088;-81
2022/11/20 00:53:27;;;;;;;13.82;10.55;;;;;;;;;;4932038;29;20039;-82
2022/11/20 00:55:57;;;;;;;13.70;11.23;;;;;;;;;;4944789;29;20046;-80
2022/11/20 00:58:24;;;;;;;18.05;14.00;;;;;;;;;;4959120;29;20656;-79
2022/11/20 01:00:50;;;;;;;14.13;12.30;;;;;;;;;;4964887;28;20096;-79
2022/11/20 01:03:19;;;;;;;18.02;10.48;;;;;;;;;;4957571;29;20036;-79
2022/11/20 01:05:45;;;;;;;18.02;16.13;;;;;;;;;;4974062;29;20035;-78
2022/11/20 01:08:11;;;;;;;13.35;11.00;;;;;;;;;;4954606;29;20031;-77
2022/11/20 01:10:37;;;;;;;10.30;8.55;;;;;;;;;;4954365;29;20031;-79
2022/11/20 01:15:48;;;;;;;12.35;11.02;;;;;;;;;;4953711;29;20063;-77
2022/11/20 01:18:14;;;;;;;11.10;10.05;;;;;;;;;;4954092;29;20035;-78
2022/11/20 01:20:40;;;;;;;16.50;14.70;;;;;;;;;;4955410;29;20074;-78
2022/11/20 01:23:06;;;;;;;13.73;10.68;;;;;;;;;;4973172;29;20042;-79
2022/11/20 01:25:31;;;;;;;19.33;15.20;;;;;;;;;;4957949;29;20027;-79
2022/11/20 01:27:57;;;;;;;16.10;14.35;;;;;;;;;;4948286;29;20094;-81
2022/11/20 01:30:23;;;;;;;13.05;10.65;;;;;;;;;;4956828;29;20061;-81
2022/11/20 01:32:49;;;;;;;13.23;11.23;;;;;;;;;;4952599;29;20039;-80
2022/11/20 01:35:15;;;;;;;11.45;10.25;;;;;;;;;;4953957;29;20031;-80
2022/11/20 01:37:41;;;;;;;15.63;11.00;;;;;;;;;;4941416;29;20508;-77
2022/11/20 01:40:07;;;;;;;13.93;11.23;;;;;;;;;;4923321;29;20385;-79
2022/11/20 01:45:36;;;;;;;15.23;13.68;;;;;;;;;;4938275;29;20106;-78
2022/11/20 01:48:02;;;;;;;14.02;12.52;;;;;;;;;;4935246;29;20043;-78
2022/11/20 01:50:33;;;;;;;11.45;10.20;;;;;;;;;;4934938;29;20043;-81
2022/11/20 01:53:00;;;;;;;10.95;7.90;;;;;;;;;;4952386;29;20039;-78
2022/11/20 01:55:28;;;;;;;10.07;7.68;;;;;;;;;;4919229;29;20066;-78
2022/11/20 01:57:54;;;;;;;14.25;9.70;;;;;;;;;;4919202;29;20031;-77
2022/11/20 02:00:19;;;;;;;9.93;8.93;;;;;;;;;;4952519;28;20072;-79
2022/11/20 02:02:47;;;;;;;12.95;9.32;;;;;;;;;;4938772;29;20039;-79
2022/11/20 02:05:22;;;;;;;10.70;9.07;;;;;;;;;;4938906;29;20041;-79
2022/11/20 02:07:48;;;;;;;13.65;12.35;;;;;;;;;;4953802;28;20043;-78
2022/11/20 02:10:14;;;;;;;13.10;11.73;;;;;;;;;;4952300;28;20131;-79
2022/11/20 02:15:44;;;;;;;11.63;7.97;;;;;;;;;;4928408;28;20055;-80
2022/11/20 02:18:11;;;;;;;9.05;7.88;;;;;;;;;;4954763;28;20767;-80
2022/11/20 02:20:37;;;;;;;8.60;7.80;;;;;;;;;;4951949;28;20038;-75
2022/11/20 02:23:12;;;;;;;13.20;10.63;;;;;;;;;;4919930;29;20183;-78
2022/11/20 02:25:38;;;;;;;13.15;11.93;;;;;;;;;;4952182;29;20106;-80
2022/11/20 02:28:04;;;;;;;11.25;9.13;;;;;;;;;;4918471;29;20725;-79
2022/11/20 02:30:30;;;;;;;14.80;9.90;;;;;;;;;;4941339;29;20046;-81
2022/11/20 02:32:55;;;;;;;9.07;8.13;;;;;;;;;;4968809;29;20042;-79
2022/11/20 02:35:21;;;;;;;9.73;8.25;;;;;;;;;;4954128;29;20039;-79
2022/11/20 02:37:48;;;;;;;12.35;11.15;;;;;;;;;;4971214;29;20443;-80
2022/11/20 02:40:14;;;;;;;9.52;8.35;;;;;;;;;;4957842;29;20050;-81
2022/11/20 02:42:40;;;;;;;8.57;7.70;;;;;;;;;;4941107;29;20047;-81
2022/11/20 02:45:06;;;;;;;13.85;11.27;;;;;;;;;;4939937;29;20111;-80
2022/11/20 02:47:32;;;;;;;12.40;8.80;;;;;;;;;;4939626;29;20019;-80
2022/11/20 02:49:58;;;;;;;10.60;9.57;;;;;;;;;;4974489;28;20067;-80
2022/11/20 02:52:23;;;;;;;15.10;10.68;;;;;;;;;;4975438;29;20058;-78
2022/11/20 02:54:49;;;;;;;9.93;8.93;;;;;;;;;;4974133;29;20174;-79
2022/11/20 02:57:15;;;;;;;12.68;11.10;;;;;;;;;;4969691;29;20054;-80
2022/11/20 02:59:41;;;;;;;10.25;9.25;;;;;;;;;;4937931;29;20035;-81
2022/11/20 03:02:07;;;;;;;8.48;7.65;;;;;;;;;;4956105;28;20042;-79
2022/11/20 03:04:33;;;;;;;10.18;8.25;;;;;;;;;;4937818;29;20044;-80
2022/11/20 03:06:59;;;;;;;12.88;10.60;;;;;;;;;;4938265;29;20039;-80
2022/11/20 03:09:25;;;;;;;10.85;8.68;;;;;;;;;;4955175;29;20107;-80
2022/11/20 03:11:51;;;;;;;8.43;7.55;;;;;;;;;;4935432;29;20530;-79
2022/11/20 03:14:17;;;;;;;9.77;8.77;;;;;;;;;;4939978;29;20039;-80
2022/11/20 03:16:42;;;;;;;10.07;9.02;;;;;;;;;;4939921;29;20102;-79
2022/11/20 03:19:08;;;;;;;12.85;11.45;;;;;;;;;;4953041;29;20523;-80
2022/11/20 03:21:34;;;;;;;14.38;12.95;;;;;;;;;;4953030;29;20463;-80
2022/11/20 03:24:00;;;;;;;10.43;9.43;;;;;;;;;;4920035;29;20412;-81
2022/11/20 03:26:27;;;;;;;9.60;8.07;;;;;;;;;;4953204;29;20043;-79
2022/11/20 03:28:53;;;;;;;15.00;12.07;;;;;;;;;;4904439;29;20065;-79
2022/11/20 03:31:20;;;;;;;9.63;8.65;;;;;;;;;;4936208;29;20526;-80
2022/11/20 03:33:47;;;;;;;8.70;7.82;;;;;;;;;;4937693;29;20134;-81
2022/11/20 03:36:13;;;;;;;5.82;5.28;;;;;;;;;;4958068;28;20043;-80
2022/11/20 03:38:39;;;;;;;8.88;7.97;;;;;;;;;;4943656;29;20031;-80
2022/11/20 03:41:06;;;;;;;9.75;8.75;;;;;;;;;;4940260;29;20038;-80
2022/11/20 03:43:32;;;;;;;12.50;11.18;;;;;;;;;;4922404;29;20039;-80
2022/11/20 03:45:58;;;;;;;9.88;8.88;;;;;;;;;;4938824;29;20039;-80
2022/11/20 03:48:24;;;;;;;7.50;6.80;;;;;;;;;;4937088;29;20058;-78
2022/11/20 03:50:51;;;;;;;9.07;8.13;;;;;;;;;;4936394;29;20047;-79
2022/11/20 03:53:17;;;;;;;8.40;7.32;;;;;;;;;;4951827;29;20031;-78
2022/11/20 03:55:43;;;;;;;7.55;6.85;;;;;;;;;;4918681;29;20215;-79
2022/11/20 03:58:09;;;;;;;8.45;7.32;;;;;;;;;;4920759;29;20057;-80
2022/11/20 04:00:35;;;;;;;8.25;7.38;;;;;;;;;;4953190;28;20699;-79
2022/11/20 04:03:01;;;;;;;10.77;7.65;;;;;;;;;;4924080;29;20035;-81
2022/11/20 04:05:27;;;;;;;11.35;8.10;;;;;;;;;;4957158;29;20063;-81
2022/11/20 04:07:53;;;;;;;8.73;7.05;;;;;;;;;;4957876;29;20566;-82
2022/11/20 04:10:18;;;;;;;12.63;11.32;;;;;;;;;;4956889;28;20122;-80
2022/11/20 04:12:45;;;;;;;9.68;8.10;;;;;;;;;;4955951;29;20035;-79
2022/11/20 04:15:11;;;;;;;8.30;7.47;;;;;;;;;;4957433;28;20054;-79
2022/11/20 04:17:36;;;;;;;8.00;7.30;;;;;;;;;;4954291;29;20039;-80
2022/11/20 04:20:03;;;;;;;8.23;6.47;;;;;;;;;;4939644;29;20039;-80
2022/11/20 04:22:29;;;;;;;7.65;6.90;;;;;;;;;;4937207;29;20059;-80
2022/11/20 04:24:55;;;;;;;7.60;6.90;;;;;;;;;;4940193;29;20062;-81
2022/11/20 04:27:21;;;;;;;8.77;7.88;;;;;;;;;;4938644;29;20039;-82
2022/11/20 04:29:47;;;;;;;10.98;8.93;;;;;;;;;;4953846;28;20515;-81
2022/11/20 04:32:12;;;;;;;12.20;10.88;;;;;;;;;;4936244;29;20047;-80
2022/11/20 04:34:38;;;;;;;11.05;7.60;;;;;;;;;;4936621;29;20074;-81
2022/11/20 04:37:07;;;;;;;11.55;10.43;;;;;;;;;;4954123;29;20435;-81
2022/11/20 04:39:33;;;;;;;9.63;8.70;;;;;;;;;;4953193;29;20035;-79
2022/11/20 04:44:43;;;;;;;14.55;7.65;;;;;;;;;;4935487;29;20043;-78
2022/11/20 04:47:09;;;;;;;9.45;8.38;;;;;;;;;;4935973;29;20603;-82
2022/11/20 04:49:35;;;;;;;8.73;7.82;;;;;;;;;;4938522;29;20059;-80
2022/11/20 04:52:01;;;;;;;9.48;8.25;;;;;;;;;;4952445;29;20035;-81
2022/11/20 04:54:27;;;;;;;8.48;7.68;;;;;;;;;;4954256;29;20467;-78
2022/11/20 04:56:53;;;;;;;14.85;12.65;;;;;;;;;;4952904;29;20043;-81
2022/11/20 04:59:19;;;;;;;8.38;7.57;;;;;;;;;;4954465;29;20053;-80
2022/11/20 05:01:45;;;;;;;11.48;8.77;;;;;;;;;;4936259;29;20709;-80
2022/11/20 05:04:11;;;;;;;9.88;8.90;;;;;;;;;;4919510;29;20038;-79
2022/11/20 05:06:36;;;;;;;10.80;9.27;;;;;;;;;;4934148;29;20448;-80
2022/11/20 05:09:02;;;;;;;8.23;7.40;;;;;;;;;;4918955;29;20042;-81
2022/11/20 05:11:28;;;;;;;10.45;8.35;;;;;;;;;;4922038;29;20035;-80
2022/11/20 05:13:54;;;;;;;9.38;7.78;;;;;;;;;;4936783;29;20035;-81
2022/11/20 05:16:21;;;;;;;13.07;8.73;;;;;;;;;;4921763;29;20054;-81
2022/11/20 05:18:47;;;;;;;9.38;8.20;;;;;;;;;;4937295;29;20488;-82
2022/11/20 05:21:13;;;;;;;13.25;10.65;;;;;;;;;;4954026;28;20053;-81
2022/11/20 05:23:39;;;;;;;9.18;7.35;;;;;;;;;;4935402;29;20134;-80
2022/11/20 05:26:06;;;;;;;10.43;8.32;;;;;;;;;;4952255;29;20041;-81
2022/11/20 05:28:31;;;;;;;11.70;7.90;;;;;;;;;;4951479;29;20047;-79
2022/11/20 05:31:07;;;;;;;11.05;8.38;;;;;;;;;;4951801;29;20055;-80
2022/11/20 05:33:33;;;;;;;9.52;8.27;;;;;;;;;;4951850;29;20515;-79
2022/11/20 05:35:59;;;;;;;10.20;7.93;;;;;;;;;;4952898;29;20564;-80
2022/11/20 05:38:25;;;;;;;10.32;9.25;;;;;;;;;;4918751;29;20031;-80
2022/11/20 05:40:51;;;;;;;11.23;9.77;;;;;;;;;;4917641;29;20035;-80
2022/11/20 05:43:17;;;;;;;10.38;7.93;;;;;;;;;;4950124;29;20039;-80
2022/11/20 05:45:43;;;;;;;12.85;8.52;;;;;;;;;;4917524;29;20040;-80
2022/11/20 05:48:09;;;;;;;10.35;8.27;;;;;;;;;;4933018;29;20058;-79
2022/11/20 05:50:35;;;;;;;13.07;8.23;;;;;;;;;;4950797;28;20039;-79
2022/11/20 05:53:01;;;;;;;9.05;7.88;;;;;;;;;;4950414;29;20035;-79
2022/11/20 05:55:27;;;;;;;12.07;8.30;;;;;;;;;;4932972;29;20043;-79
2022/11/20 05:57:54;;;;;;;12.35;9.70;;;;;;;;;;4960504;29;20536;-72
2022/11/20 06:00:20;;;;;;;11.02;9.05;;;;;;;;;;4949106;29;20047;-71
2022/11/20 06:02:46;;;;;;;9.05;7.68;;;;;;;;;;4951478;29;20035;-71
2022/11/20 06:05:12;;;;;;;12.35;9.98;;;;;;;;;;4952271;29;20035;-71
2022/11/20 06:07:38;;;;;;;10.68;9.57;;;;;;;;;;4950979;29;20415;-71
2022/11/20 06:10:04;;;;;;;10.65;8.57;;;;;;;;;;4934564;29;20067;-71
2022/11/20 06:12:31;;;;;;;10.65;9.15;;;;;;;;;;4949605;29;20041;-71
2022/11/20 06:14:57;;;;;;;10.60;7.90;;;;;;;;;;4949594;29;20123;-70
2022/11/20 06:17:22;;;;;;;10.43;8.07;;;;;;;;;;4949038;29;20059;-71
2022/11/20 06:19:48;;;;;;;8.82;7.32;;;;;;;;;;4949444;29;20058;-71
2022/11/20 06:22:14;;;;;;;9.95;8.40;;;;;;;;;;4948965;29;20459;-72
2022/11/20 06:24:40;;;;;;;12.40;8.90;;;;;;;;;;4933558;29;20046;-71
2022/11/20 06:27:06;;;;;;;10.75;7.13;;;;;;;;;;4929716;29;20031;-70
2022/11/20 06:29:32;;;;;;;8.45;7.32;;;;;;;;;;4939583;29;20090;-70
2022/11/20 06:31:58;;;;;;;10.18;8.30;;;;;;;;;;4950626;29;20057;-71
2022/11/20 06:34:24;;;;;;;12.23;8.05;;;;;;;;;;4952669;29;20502;-71
2022/11/20 06:36:50;;;;;;;8.60;7.35;;;;;;;;;;4919889;29;20086;-71
2022/11/20 06:39:16;;;;;;;11.77;8.00;;;;;;;;;;4952683;29;20669;-71
2022/11/20 06:41:42;;;;;;;10.25;8.50;;;;;;;;;;4952585;29;20042;-71
2022/11/20 06:44:07;;;;;;;12.30;10.52;;;;;;;;;;4952870;29;20657;-71
2022/11/20 06:46:33;;;;;;;10.85;9.75;;;;;;;;;;4935482;29;20039;-70
2022/11/20 06:48:59;;;;;;;9.73;8.70;;;;;;;;;;4933774;29;20563;-71
2022/11/20 06:51:25;;;;;;;9.95;8.60;;;;;;;;;;4945163;28;20062;-69
2022/11/20 06:53:51;;;;;;;9.95;7.93;;;;;;;;;;4961889;28;20089;-70
2022/11/20 06:56:18;;;;;;;12.00;8.60;;;;;;;;;;4952022;29;20058;-69
2022/11/20 06:58:44;;;;;;;10.50;8.75;;;;;;;;;;4958491;28;20031;-72
2022/11/20 07:01:10;;;;;;;11.68;8.57;;;;;;;;;;4949992;28;20047;-72
2022/11/20 07:03:36;;;;;;;9.65;7.95;;;;;;;;;;4917990;29;20135;-71
2022/11/20 07:06:02;;;;;;;10.00;8.52;;;;;;;;;;4950513;29;20047;-72
2022/11/20 07:08:28;;;;;;;11.00;8.45;;;;;;;;;;4950734;29;20042;-71
2022/11/20 07:10:58;;;;;;;10.52;8.98;;;;;;;;;;4950985;29;20133;-71
2022/11/20 07:13:24;;;;;;;15.00;10.77;;;;;;;;;;4951034;29;20035;-71
2022/11/20 07:15:50;;;;;;;11.07;8.50;;;;;;;;;;4951331;29;20562;-71
2022/11/20 07:18:16;;;;;;;15.77;9.45;;;;;;;;;;4933617;29;20911;-71
2022/11/20 07:20:42;;;;;;;11.82;9.30;;;;;;;;;;4934121;29;20035;-71
2022/11/20 07:23:08;;;;;;;15.65;12.02;;;;;;;;;;4950917;29;20455;-71
2022/11/20 07:25:34;;;;;;;20.20;14.00;;;;;;;;;;4950996;29;20221;-72
2022/11/20 07:28:00;;;;;;;16.63;12.45;;;;;;;;;;4918200;29;20202;-71
2022/11/20 07:30:26;;;;;;;12.00;8.98;;;;;;;;;;4950757;29;20090;-70
2022/11/20 07:32:52;;;;;;;13.98;10.13;;;;;;;;;;4950927;28;20035;-69
2022/11/20 07:35:18;;;;;;;10.73;9.32;;;;;;;;;;4950653;28;20050;-69
2022/11/20 07:37:45;;;;;;;13.95;9.82;;;;;;;;;;4950588;29;20047;-70
2022/11/20 07:40:14;;;;;;;11.02;8.52;;;;;;;;;;4950767;29;20063;-70
2022/11/20 07:42:49;;;;;;;13.45;8.98;;;;;;;;;;4950663;29;20291;-72
2022/11/20 07:45:16;;;;;;;11.52;9.55;;;;;;;;;;4928701;28;20035;-71
2022/11/20 07:47:41;;;;;;;9.18;8.25;;;;;;;;;;4942082;28;20407;-73
2022/11/20 07:50:08;;;;;;;12.18;9.52;;;;;;;;;;4949732;28;20039;-72
2022/11/20 07:52:33;;;;;;;11.02;8.80;;;;;;;;;;4949375;28;20031;-71
2022/11/20 07:54:59;;;;;;;11.60;9.27;;;;;;;;;;4926911;29;20390;-72
2022/11/20 07:57:25;;;;;;;12.52;9.90;;;;;;;;;;4935739;29;20146;-72
2022/11/20 07:59:51;;;;;;;11.77;9.75;;;;;;;;;;4916178;29;20035;-72
2022/11/20 08:02:17;;;;;;;11.50;9.32;;;;;;;;;;4929368;29;20058;-71
2022/11/20 08:04:43;;;;;;;12.02;10.23;;;;;;;;;;4929898;29;20114;-73
2022/11/20 08:07:09;;;;;;;13.23;10.20;;;;;;;;;;4931799;29;20093;-71
2022/11/20 08:09:35;;;;;;;15.90;11.80;;;;;;;;;;4929449;29;21008;-72
2022/11/20 08:14:46;;;;;;;13.98;11.10;;;;;;;;;;4948195;29;20126;-72
2022/11/20 08:17:12;;;;;;;13.23;9.93;;;;;;;;;;4949702;29;20130;-72
2022/11/20 08:19:38;;;;;;;13.95;9.60;;;;;;;;;;4949434;29;20031;-71
2022/11/20 08:22:04;;;;;;;13.20;9.52;;;;;;;;;;4932485;29;20106;-72
2022/11/20 08:24:30;;;;;;;8.35;7.60;;;;;;;;;;4932356;29;20061;-71
2022/11/20 08:26:57;;;;;;;15.25;10.35;;;;;;;;;;4932206;29;20031;-71
2022/11/20 08:29:23;;;;;;;12.35;9.80;;;;;;;;;;4949632;29;20038;-72
2022/11/20 08:31:49;;;;;;;15.25;9.70;;;;;;;;;;4949109;29;20049;-71
2022/11/20 08:34:15;;;;;;;8.02;6.03;;;;;;;;;;4947681;29;20031;-71
2022/11/20 08:36:40;;;;;;;14.23;10.05;;;;;;;;;;4950583;29;20043;-72
2022/11/20 08:39:06;;;;;;;15.00;10.35;;;;;;;;;;4950361;29;20053;-72
2022/11/20 08:41:32;;;;;;;13.10;9.85;;;;;;;;;;4950331;28;20735;-71
2022/11/20 08:43:59;;;;;;;15.02;12.02;;;;;;;;;;4950401;28;20724;-71
2022/11/20 08:46:26;;;;;;;14.60;9.75;;;;;;;;;;4950048;28;20043;-71
2022/11/20 08:48:51;;;;;;;12.50;9.35;;;;;;;;;;4932238;29;20085;-71
2022/11/20 08:51:18;;;;;;;13.80;10.73;;;;;;;;;;4950003;28;20062;-71
2022/11/20 08:53:44;;;;;;;17.73;12.20;;;;;;;;;;4950184;28;20075;-72
2022/11/20 08:56:10;;;;;;;13.10;10.50;;;;;;;;;;4950033;28;20091;-72
2022/11/20 08:58:37;;;;;;;14.70;10.45;;;;;;;;;;4949672;28;20027;-73
2022/11/20 09:01:03;;;;;;;10.57;8.05;;;;;;;;;;4932859;28;20495;-71
2022/11/20 09:03:29;;;;;;;12.75;10.13;;;;;;;;;;4949264;28;20043;-70
2022/11/20 09:06:02;;;;;;;14.60;9.45;;;;;;;;;;4950051;28;20035;-71
2022/11/20 09:08:28;;;;;;;11.65;9.32;;;;;;;;;;4949474;28;20074;-72
2022/11/20 09:10:54;;;;;;;17.85;11.85;;;;;;;;;;4949819;28;20062;-71
2022/11/20 09:13:23;;;;;;;20.65;13.68;;;;;;;;;;4949437;28;20039;-72
2022/11/20 09:15:52;;;;;;;16.92;12.57;;;;;;;;;;4949670;28;20125;-72
2022/11/20 09:18:18;;;;;;;17.02;12.00;;;;;;;;;;4948273;28;20035;-71
2022/11/20 09:20:44;;;;;;;19.20;13.57;;;;;;;;;;4932251;29;20039;-71
2022/11/20 09:23:11;;;;;;;21.92;12.75;;;;;;;;;;4932284;28;20518;-72
2022/11/20 09:25:37;;;;;;;21.35;13.75;;;;;;;;;;4931988;28;20127;-71
2022/11/20 09:28:03;;;;;;;23.73;13.73;;;;;;;;;;4916393;28;20039;-71
2022/11/20 09:30:29;;;;;;;21.77;13.55;;;;;;;;;;4949072;28;20046;-71
2022/11/20 09:32:55;;;;;;;34.95;15.50;;;;;;;;;;4948852;29;20528;-71
2022/11/20 09:35:21;;;;;;;29.83;14.05;;;;;;;;;;4931714;29;20094;-71
2022/11/20 09:37:47;;;;;;;25.25;13.85;;;;;;;;;;4931765;29;20140;-71
2022/11/20 09:40:23;;;;;;;23.98;14.80;;;;;;;;;;4949240;29;20126;-72
2022/11/20 09:42:59;;;;;;;22.30;13.95;;;;;;;;;;4931741;29;20043;-71
2022/11/20 09:45:48;;;;;;;28.90;16.08;;;;;;;;;;4931761;29;20062;-72
2022/11/20 09:48:27;;;;;;;21.33;12.57;;;;;;;;;;4936698;29;20039;-72
2022/11/20 09:50:57;;;;;;;23.67;14.88;;;;;;;;;;4950186;29;20312;-71
2022/11/20 09:53:23;;;;;;;30.88;15.30;;;;;;;;;;4948793;29;20039;-71
2022/11/20 09:55:49;;;;;;;18.92;13.52;;;;;;;;;;4949046;29;20658;-71
2022/11/20 09:58:24;;;;;;;24.25;15.75;;;;;;;;;;4949092;28;20772;-72
2022/11/20 10:00:50;;;;;;;22.50;11.65;;;;;;;;;;4948988;28;20067;-72
2022/11/20 10:03:17;;;;;;;37.33;18.13;;;;;;;;;;4926554;29;20074;-71
2022/11/20 10:05:44;;;;;;;27.42;16.25;;;;;;;;;;4935519;29;20051;-71
2022/11/20 10:08:16;;;;;;;32.35;14.00;;;;;;;;;;4935492;29;20054;-73
2022/11/20 10:10:42;;;;;;;37.72;17.48;;;;;;;;;;4952695;29;20074;-72
2022/11/20 10:13:14;;;;;;;22.50;13.73;;;;;;;;;;4935527;29;20852;-71
2022/11/20 10:16:01;;;;;;;29.15;17.27;;;;;;;;;;4935228;29;20054;-72
2022/11/20 10:18:39;;;;;;;29.52;16.13;;;;;;;;;;4919503;29;20035;-72
2022/11/20 10:21:28;;;;;;;22.15;13.40;;;;;;;;;;4952601;29;20059;-71
2022/11/20 10:24:06;;;;;;;23.95;14.25;;;;;;;;;;4940021;29;20047;-71
2022/11/20 10:26:55;;;;;;;27.60;15.65;;;;;;;;;;4934945;29;20039;-72
2022/11/20 10:29:29;;;;;;;38.42;17.70;;;;;;;;;;4907432;29;20039;-74
2022/11/20 10:31:56;;;;;;;27.50;15.63;;;;;;;;;;4934884;29;20035;-70
2022/11/20 10:34:30;;;;;;;26.92;13.55;;;;;;;;;;4952162;28;20035;-71
2022/11/20 10:36:59;;;;;;;36.13;18.38;;;;;;;;;;4952381;29;20090;-72
2022/11/20 10:39:44;;;;;;;34.13;17.35;;;;;;;;;;4934700;29;20503;-71
2022/11/20 10:42:14;;;;;;;31.63;15.27;;;;;;;;;;4951121;29;20504;-71
2022/11/20 10:47:24;;;;;;;35.47;17.98;;;;;;;;;;4937220;28;20333;-72
2022/11/20 10:49:51;;;;;;;25.55;14.88;;;;;;;;;;4903813;29;20034;-71
2022/11/20 10:52:35;;;;;;;36.50;15.32;;;;;;;;;;4927139;29;20031;-71
2022/11/20 10:55:04;;;;;;;31.83;17.88;;;;;;;;;;4943512;29;20032;-71
2022/11/20 10:57:36;;;;;;;40.60;16.80;;;;;;;;;;4951623;29;20062;-71
2022/11/20 11:00:04;;;;;;;38.05;17.95;;;;;;;;;;4934870;29;20268;-71
2022/11/20 11:02:41;;;;;;;31.70;16.90;;;;;;;;;;4918299;29;20069;-72
2022/11/20 11:05:14;;;;;;;28.85;16.10;;;;;;;;;;4931082;29;20117;-72
2022/11/20 11:07:40;;;;;;;48.65;21.55;;;;;;;;;;4928178;29;20792;-72
2022/11/20 11:10:17;;;;;;;39.88;19.17;;;;;;;;;;4934540;29;20070;-71
2022/11/20 11:12:44;;;;;;;42.55;19.67;;;;;;;;;;4948071;29;21086;-71
2022/11/20 11:15:12;;;;;;;36.50;17.58;;;;;;;;;;4931237;29;20079;-71
2022/11/20 11:17:37;;;;;;;44.05;20.92;;;;;;;;;;4948351;29;20070;-71
2022/11/20 11:20:15;;;;;;;43.05;18.55;;;;;;;;;;4933156;29;20508;-71
2022/11/20 11:23:07;;;;;;;60.08;21.58;;;;;;;;;;4947892;29;20051;-71
2022/11/20 11:25:34;;;;;;;38.92;18.63;;;;;;;;;;4929393;29;20054;-71
2022/11/20 11:28:01;;;;;;;35.53;17.60;;;;;;;;;;4950522;29;20030;-71
2022/11/20 11:30:28;;;;;;;41.70;16.23;;;;;;;;;;4946126;28;21032;-72
2022/11/20 11:33:25;;;;;;;40.55;19.17;;;;;;;;;;4950624;29;20090;-71
2022/11/20 11:35:58;;;;;;;41.72;18.30;;;;;;;;;;4905271;29;20114;-71
2022/11/20 11:38:36;;;;;;;34.10;17.42;;;;;;;;;;4953667;29;20035;-72
2022/11/20 11:41:03;;;;;;;34.75;17.92;;;;;;;;;;4935826;29;20038;-72
2022/11/20 11:46:23;;;;;;;39.30;17.10;;;;;;;;;;4934478;29;20039;-72
2022/11/20 11:49:05;;;;;;;27.80;15.88;;;;;;;;;;4922675;29;20043;-71
2022/11/20 11:51:30;;;;;;;;;;;;;;;;;;4933262;29;20047;-71
2022/11/20 11:53:56;;;;;;;28.30;15.98;;;;;;;;;;4931922;29;20311;-71
2022/11/20 11:56:22;;;;;;;27.10;14.85;;;;;;;;;;4899320;29;20402;-71
2022/11/20 11:58:50;;;;;;;27.73;15.20;;;;;;;;;;4914493;29;20043;-70
2022/11/20 12:01:19;;;;;;;19.40;11.25;;;;;;;;;;4914386;29;20039;-71
2022/11/20 12:03:47;;;;;;;26.90;14.65;;;;;;;;;;4931375;29;20031;-71
2022/11/20 12:06:14;;;;;;;27.25;14.32;;;;;;;;;;4914767;29;20516;-70
2022/11/20 12:08:59;;;;;;;20.67;11.18;;;;;;;;;;4914494;29;20433;-71
2022/11/20 12:11:32;;;;;;;15.23;10.05;;;;;;;;;;4940033;29;20031;-71
2022/11/20 12:14:23;;;;;;;15.18;10.88;;;;;;;;;;4950893;29;20626;-71
2022/11/20 12:16:50;;;;;;;17.90;10.75;;;;;;;;;;4932926;29;20043;-71
2022/11/20 12:19:16;;;;;;;19.42;11.05;;;;;;;;;;4931681;29;20055;-69
2022/11/20 12:21:57;;;;;;;9.75;7.63;;;;;;;;;;4949709;28;20067;-71
2022/11/20 12:24:26;;;;;;;19.55;13.45;;;;;;;;;;4933635;29;20420;-71
2022/11/20 12:27:11;;;;;;;14.70;9.77;;;;;;;;;;4950628;28;20126;-71
2022/11/20 12:29:43;;;;;;;21.63;10.70;;;;;;;;;;4949905;28;20039;-72
2022/11/20 12:32:15;;;;;;;14.68;9.70;;;;;;;;;;4950070;28;20571;-71
2022/11/20 12:35:14;;;;;;;8.48;7.32;;;;;;;;;;4947032;29;20043;-71
2022/11/20 12:37:43;;;;;;;16.35;10.10;;;;;;;;;;4896363;29;20592;-71
2022/11/20 12:40:36;;;;;;;5.82;4.90;;;;;;;;;;4933291;29;20039;-71
2022/11/20 12:45:51;;;;;;;14.60;10.50;;;;;;;;;;4919189;29;20039;-69
2022/11/20 12:48:20;;;;;;;6.60;5.30;;;;;;;;;;4944159;29;20050;-70
2022/11/20 12:50:52;;;;;;;5.97;5.47;;;;;;;;;;4934328;29;20042;-71
2022/11/20 12:53:28;;;;;;;14.65;10.25;;;;;;;;;;4930912;29;20208;-71
2022/11/20 12:56:11;;;;;;;9.65;8.60;;;;;;;;;;4930875;29;20044;-70
2022/11/20 12:58:52;;;;;;;18.05;12.25;;;;;;;;;;4897876;29;20130;-72
2022/11/20 13:01:40;;;;;;;22.50;13.18;;;;;;;;;;4930377;29;20077;-70
2022/11/20 13:04:26;;;;;;;14.32;11.63;;;;;;;;;;4930622;29;20047;-71
2022/11/20 13:06:51;;;;;;;27.65;10.88;;;;;;;;;;4913983;29;20043;-71
2022/11/20 13:09:18;;;;;;;15.27;11.77;;;;;;;;;;4930717;29;20083;-71
2022/11/20 13:11:59;;;;;;;15.30;12.25;;;;;;;;;;4897728;29;20039;-71
2022/11/20 13:14:31;;;;;;;20.98;13.93;;;;;;;;;;4913302;29;20048;-71
2022/11/20 13:16:57;;;;;;;25.33;14.80;;;;;;;;;;4930545;29;20051;-71
2022/11/20 13:19:23;;;;;;;13.77;10.73;;;;;;;;;;4918195;29;20148;-70
2022/11/20 13:21:50;;;;;;;15.93;12.02;;;;;;;;;;4932077;29;20066;-70
2022/11/20 13:24:19;;;;;;;6.13;5.63;;;;;;;;;;4947570;29;20039;-70
2022/11/20 13:26:45;;;;;;;16.55;12.15;;;;;;;;;;4942828;29;20050;-70
2022/11/20 13:29:12;;;;;;;16.27;12.25;;;;;;;;;;4918407;29;20031;-71
2022/11/20 13:31:39;;;;;;;14.40;10.90;;;;;;;;;;4914066;29;20043;-72
2022/11/20 13:34:06;;;;;;;16.33;12.23;;;;;;;;;;4923300;29;20107;-70
2022/11/20 13:36:32;;;;;;;17.45;10.35;;;;;;;;;;4947164;29;20146;-70
2022/11/20 13:38:58;;;;;;;17.58;13.43;;;;;;;;;;4925434;29;20034;-72
2022/11/20 13:41:32;;;;;;;17.48;13.25;;;;;;;;;;4913569;29;20148;-69
2022/11/20 13:43:59;;;;;;;33.65;18.80;;;;;;;;;;4938431;29;20090;-71
2022/11/20 13:46:35;;;;;;;39.00;16.90;;;;;;;;;;4930588;29;20044;-70
2022/11/20 13:49:01;;;;;;;40.47;20.42;;;;;;;;;;4930234;29;20043;-70
2022/11/20 13:51:27;;;;;;;41.83;20.30;;;;;;;;;;4913134;29;20032;-70
2022/11/20 13:54:13;;;;;;;51.78;22.90;;;;;;;;;;4912578;29;20103;-71
2022/11/20 13:56:42;;;;;;;39.15;18.80;;;;;;;;;;4929796;29;20042;-70
2022/11/20 13:59:26;;;;;;;43.42;18.55;;;;;;;;;;4929649;29;20040;-71
2022/11/20 14:01:52;;;;;;;49.85;20.55;;;;;;;;;;4929833;29;20225;-71
2022/11/20 14:04:19;;;;;;;71.70;26.58;;;;;;;;;;4927987;29;20571;-70
2022/11/20 14:06:45;;;;;;;43.72;19.38;;;;;;;;;;4925002;29;20148;-71
2022/11/20 14:09:12;;;;;;;49.92;21.42;;;;;;;;;;4944778;29;20035;-70
2022/11/20 14:11:45;;;;;;;38.40;19.10;;;;;;;;;;4929116;29;20431;-71
2022/11/20 14:14:18;;;;;;;40.70;18.23;;;;;;;;;;4942154;29;20042;-71
2022/11/20 14:16:44;;;;;;;36.38;17.65;;;;;;;;;;4947733;29;20093;-70
2022/11/20 14:19:16;;;;;;;42.30;19.88;;;;;;;;;;4944573;29;20079;-70
2022/11/20 14:21:42;;;;;;;46.13;21.60;;;;;;;;;;4946331;29;20062;-71
2022/11/20 14:24:10;;;;;;;50.70;25.35;;;;;;;;;;4930813;29;20039;-70
2022/11/20 14:26:36;;;;;;;58.47;29.15;;;;;;;;;;4948694;29;20028;-71
2022/11/20 14:29:03;;;;;;;57.13;27.33;;;;;;;;;;4944002;29;20043;-71
2022/11/20 14:31:29;;;;;;;62.97;30.02;;;;;;;;;;4945239;29;20436;-70
2022/11/20 14:33:54;;;;;;;48.75;25.38;;;;;;;;;;4947061;29;20031;-70
2022/11/20 14:36:21;;;;;;;58.17;28.33;;;;;;;;;;4934932;29;20090;-71
2022/11/20 14:38:47;;;;;;;67.15;31.92;;;;;;;;;;4929572;29;20067;-71
2022/11/20 14:41:20;;;;;;;53.65;23.70;;;;;;;;;;4929727;29;20051;-71
2022/11/20 14:43:46;;;;;;;56.75;22.90;;;;;;;;;;4916071;29;20496;-69
2022/11/20 14:46:12;;;;;;;67.20;28.85;;;;;;;;;;4899387;29;20043;-70
2022/11/20 14:48:43;;;;;;;51.35;24.38;;;;;;;;;;4900198;29;20040;-70
2022/11/20 14:51:23;;;;;;;74.35;30.50;;;;;;;;;;4916375;29;20125;-71
2022/11/20 14:53:49;;;;;;;57.03;26.02;;;;;;;;;;4933020;29;20038;-71
2022/11/20 14:56:20;;;;;;;59.30;25.13;;;;;;;;;;4933461;29;20052;-71